aviador You're here:

KSHM Decoded Metar

in
Report Time2018-01-18 12:58:00
UTC Time2018-01-18 13:59:23
Flight Rules vfr VFR
Wind020° at 03 kt
W.Rank020° ranks 9
Current wind is below 020° avg. (9.1)
Visibility9999 m
Phenomena:N/A
Clouds:N/A
Expected CloudBase > 5,200 ft AGL from Temp-Dew spread
CeilingNone
Temp-3°C
Dew Point-16°C (36% RH)
AAT-7.5°C
QNH1021 hPa
Raw Report
KSHM 181258Z AUTO 02003KT 10SM CLR M03/M16 A3014 RMK AO2 SLP244
T10351157=

Extra information for KSHM:More info

Social comments